createdAt,value
2024-05-09T00:02:15.337Z,5.60
2024-05-09T00:05:06.078Z,5.40
2024-05-09T00:07:59.405Z,5.90
2024-05-09T00:10:50.013Z,5.67
2024-05-09T00:13:40.516Z,6.03
2024-05-09T00:16:30.971Z,5.20
2024-05-09T00:19:21.609Z,5.90
2024-05-09T00:22:12.119Z,5.70
2024-05-09T00:25:06.075Z,5.47
2024-05-09T00:27:56.523Z,5.67
2024-05-09T00:30:47.008Z,5.37
2024-05-09T00:33:37.701Z,5.50
2024-05-09T00:36:28.326Z,6.10
2024-05-09T00:39:18.889Z,5.23
2024-05-09T00:42:12.094Z,6.40
2024-05-09T00:45:02.547Z,5.93
2024-05-09T00:47:53.345Z,5.53
2024-05-09T00:50:45.466Z,5.30
2024-05-09T00:53:37.070Z,6.13
2024-05-09T00:56:28.397Z,5.70
2024-05-09T00:59:22.608Z,5.60
2024-05-09T01:02:13.711Z,5.40
2024-05-09T01:05:04.952Z,5.47
2024-05-09T01:07:55.521Z,5.97
2024-05-09T01:10:48.616Z,5.80
2024-05-09T01:13:39.369Z,6.10
2024-05-09T01:16:32.723Z,5.57
2024-05-09T01:19:29.278Z,5.77
2024-05-09T01:22:19.823Z,5.80
2024-05-09T01:25:13.083Z,5.47
2024-05-09T01:28:03.663Z,6.10
2024-05-09T01:30:54.116Z,6.20
2024-05-09T01:33:45.263Z,6.40
2024-05-09T01:36:35.863Z,6.13
2024-05-09T01:39:26.509Z,6.30
2024-05-09T01:42:19.726Z,6.43
2024-05-09T01:45:11.318Z,6.53
2024-05-09T01:48:02.702Z,6.27
2024-05-09T01:50:53.682Z,7.00
2024-05-09T01:53:44.183Z,6.10
2024-05-09T01:56:34.808Z,6.80
2024-05-09T01:59:28.024Z,6.33
2024-05-09T02:02:18.843Z,6.47
2024-05-09T02:05:10.062Z,6.20
2024-05-09T02:08:00.725Z,6.50
2024-05-09T02:10:52.312Z,7.10
2024-05-09T02:13:44.377Z,6.87
2024-05-09T02:16:37.449Z,6.43
2024-05-09T02:19:28.018Z,6.97
2024-05-09T02:22:18.554Z,6.70
2024-05-09T02:25:09.217Z,6.70
2024-05-09T02:27:59.752Z,6.60
2024-05-09T02:30:50.264Z,6.57
2024-05-09T02:33:43.535Z,6.33
2024-05-09T02:36:34.076Z,6.57
2024-05-09T02:39:22.035Z,7.63
2024-05-09T02:42:12.585Z,7.23
2024-05-09T02:45:00.537Z,7.23
2024-05-09T02:47:51.289Z,7.60
2024-05-09T02:50:42.361Z,7.60
2024-05-09T02:53:32.975Z,7.30
2024-05-09T02:56:20.883Z,7.13
2024-05-09T02:59:11.819Z,7.57
2024-05-09T03:01:59.837Z,7.30
2024-05-09T03:04:50.502Z,7.60
2024-05-09T03:16:59.347Z,6.63
2024-05-09T03:19:47.335Z,6.53
2024-05-09T03:22:37.947Z,6.83
2024-05-09T03:25:25.841Z,7.50
2024-05-09T03:28:16.340Z,7.30
2024-05-09T03:31:04.380Z,7.00
2024-05-09T03:33:57.578Z,7.27
2024-05-09T03:36:48.258Z,7.67
2024-05-09T03:39:39.008Z,8.17
2024-05-09T03:42:29.452Z,7.90
2024-05-09T03:45:19.970Z,8.57
2024-05-09T03:48:08.835Z,8.07
2024-05-09T03:51:02.202Z,7.90
2024-05-09T03:53:50.132Z,7.93
2024-05-09T03:56:41.596Z,8.63
2024-05-09T03:59:29.643Z,8.57
2024-05-09T04:02:20.263Z,8.73
2024-05-09T04:05:08.176Z,9.23
2024-05-09T04:08:01.488Z,8.00
2024-05-09T04:10:49.467Z,8.27
2024-05-09T04:13:40.016Z,8.23
2024-05-09T04:16:30.511Z,8.53
2024-05-09T04:19:18.484Z,7.70
2024-05-09T04:22:09.964Z,8.43
2024-05-09T04:25:00.442Z,8.80
2024-05-09T04:27:55.651Z,8.57
2024-05-09T04:30:43.838Z,9.10
2024-05-09T04:33:34.651Z,9.03
2024-05-09T04:36:22.941Z,9.33
2024-05-09T04:39:13.453Z,8.70
2024-05-09T04:42:04.275Z,8.87
2024-05-09T04:44:58.299Z,8.27
2024-05-09T04:47:46.957Z,8.67
2024-05-09T04:50:39.265Z,8.77
2024-05-09T04:53:30.462Z,8.00
2024-05-09T04:56:18.331Z,7.63
2024-05-09T04:59:11.566Z,7.63
2024-05-09T05:01:59.583Z,7.67
2024-05-09T05:04:50.202Z,7.97
2024-05-09T05:07:40.854Z,8.63
2024-05-09T05:10:34.040Z,7.37
2024-05-09T05:13:27.732Z,8.07
2024-05-09T05:16:21.922Z,8.43
2024-05-09T05:19:13.416Z,9.17
2024-05-09T05:22:05.512Z,8.60
2024-05-09T05:24:53.393Z,9.23
2024-05-09T05:27:43.844Z,8.90
2024-05-09T05:30:34.714Z,9.40
2024-05-09T05:33:28.514Z,8.90
2024-05-09T05:36:16.470Z,8.93
2024-05-09T05:39:06.936Z,7.77
2024-05-09T05:41:54.749Z,8.17
2024-05-09T05:44:45.367Z,8.40
2024-05-09T05:51:16.048Z,8.47
2024-05-09T05:54:11.657Z,8.50
2024-05-09T05:56:59.756Z,9.37
2024-05-09T05:59:50.201Z,9.07
2024-05-09T06:02:38.086Z,9.23
2024-05-09T06:05:28.625Z,9.10
2024-05-09T06:08:16.672Z,8.60
2024-05-09T06:11:10.416Z,10.93
2024-05-09T06:13:58.388Z,10.23
2024-05-09T06:16:48.852Z,10.37
2024-05-09T06:19:36.954Z,9.30
2024-05-09T06:22:27.466Z,12.20
2024-05-09T06:25:15.449Z,13.07
2024-05-09T06:28:09.005Z,11.23
2024-05-09T06:30:56.789Z,12.67
2024-05-09T06:33:48.171Z,11.70
2024-05-09T06:36:36.119Z,13.40
2024-05-09T06:39:26.684Z,11.67
2024-05-09T06:42:17.100Z,12.20
2024-05-09T06:45:07.930Z,12.37
2024-05-09T06:47:58.546Z,12.33
2024-05-09T06:50:46.851Z,11.57
2024-05-09T06:53:37.517Z,12.13
2024-05-09T06:56:25.609Z,10.97
2024-05-09T06:59:16.195Z,11.00
2024-05-09T07:02:06.783Z,10.07
2024-05-09T07:04:57.362Z,11.27
2024-05-09T07:07:45.311Z,10.27
2024-05-09T07:10:36.827Z,11.20
2024-05-09T07:13:25.052Z,10.90
2024-05-09T07:16:15.551Z,11.07
2024-05-09T07:19:06.777Z,10.80
2024-05-09T07:21:58.097Z,10.20
2024-05-09T07:24:45.969Z,10.50
2024-05-09T07:27:37.396Z,11.07
2024-05-09T07:30:32.702Z,9.43
2024-05-09T07:33:25.160Z,11.20
2024-05-09T07:36:15.820Z,10.40
2024-05-09T07:39:06.378Z,10.20
2024-05-09T07:41:55.293Z,9.80
2024-05-09T07:44:46.085Z,9.30
2024-05-09T07:53:38.732Z,10.60
2024-05-09T07:56:32.026Z,10.07
2024-05-09T07:59:20.138Z,12.13
2024-05-09T08:02:10.842Z,11.97
2024-05-09T08:04:58.863Z,12.63
2024-05-09T08:07:49.574Z,11.23
2024-05-09T08:10:40.210Z,10.93
2024-05-09T08:13:30.819Z,11.98
2024-05-09T08:16:19.011Z,12.45
2024-05-09T08:19:09.717Z,12.73
2024-05-09T08:21:57.763Z,14.05
2024-05-09T08:24:48.477Z,13.48
2024-05-09T08:27:39.881Z,12.77
2024-05-09T08:30:36.466Z,12.52
2024-05-09T08:33:25.969Z,13.65
2024-05-09T08:36:17.849Z,14.05
2024-05-09T08:39:05.721Z,12.85
2024-05-09T08:41:56.288Z,12.68
2024-05-09T08:44:49.527Z,13.15
2024-05-09T08:47:40.308Z,12.23
2024-05-09T08:50:37.916Z,11.20
2024-05-09T08:53:27.627Z,13.10
2024-05-09T08:56:19.222Z,12.95
2024-05-09T08:59:13.597Z,13.18
2024-05-09T09:02:08.929Z,11.77
2024-05-09T09:05:03.336Z,12.82
2024-05-09T09:07:54.239Z,11.40
2024-05-09T09:10:46.566Z,10.75
2024-05-09T09:13:34.500Z,12.63
2024-05-09T09:16:35.388Z,13.68
2024-05-09T09:19:26.341Z,13.00
2024-05-09T09:22:17.082Z,12.27
2024-05-09T09:25:05.805Z,12.10
2024-05-09T09:27:56.741Z,11.27
2024-05-09T09:30:45.922Z,11.23
2024-05-09T09:33:36.823Z,11.73
2024-05-09T09:36:29.027Z,10.50
2024-05-09T09:39:23.635Z,13.38
2024-05-09T09:42:16.694Z,10.88
2024-05-09T09:45:08.265Z,11.88
2024-05-09T09:47:57.237Z,10.80
2024-05-09T09:50:50.226Z,10.45
2024-05-09T09:53:42.550Z,12.57
2024-05-09T09:56:35.277Z,12.15
2024-05-09T09:59:25.447Z,11.55
2024-05-09T10:02:16.572Z,9.80
2024-05-09T10:05:05.350Z,9.45
2024-05-09T10:07:57.303Z,10.18
2024-05-09T10:10:48.974Z,9.80
2024-05-09T10:13:39.615Z,9.57
2024-05-09T10:16:31.287Z,9.20
2024-05-09T10:19:27.523Z,10.38
2024-05-09T10:22:29.849Z,9.27
2024-05-09T10:25:18.640Z,10.70
2024-05-09T10:28:14.670Z,8.80
2024-05-09T10:31:06.990Z,8.68
2024-05-09T10:33:58.621Z,7.00
2024-05-09T10:36:46.827Z,9.18
2024-05-09T10:39:39.115Z,8.25
2024-05-09T10:42:27.322Z,8.65
2024-05-09T10:45:21.690Z,9.63
2024-05-09T10:48:09.863Z,8.77
2024-05-09T10:51:00.568Z,11.05
2024-05-09T10:53:48.914Z,9.48
2024-05-09T10:56:39.568Z,8.65
2024-05-09T10:59:33.325Z,6.70
2024-05-09T11:02:26.750Z,7.82
2024-05-09T11:05:15.095Z,8.15
2024-05-09T11:08:06.838Z,7.57
2024-05-09T11:10:56.340Z,7.30
2024-05-09T11:13:47.170Z,7.60
2024-05-09T11:16:35.254Z,6.15
2024-05-09T11:19:33.571Z,15.85
2024-05-09T11:22:25.115Z,8.73
2024-05-09T11:25:15.988Z,13.38
2024-05-09T11:28:04.228Z,6.80
2024-05-09T11:30:55.016Z,6.85
2024-05-09T11:33:45.432Z,6.72
2024-05-09T11:36:38.887Z,6.78
2024-05-09T11:39:29.856Z,6.68
2024-05-09T11:42:21.078Z,6.55
2024-05-09T11:45:09.149Z,7.45
2024-05-09T11:48:00.202Z,6.70
2024-05-09T11:50:48.364Z,5.47
2024-05-09T11:53:41.694Z,6.70
2024-05-09T11:56:29.733Z,5.13
2024-05-09T11:59:20.538Z,5.82
2024-05-09T12:02:08.555Z,5.30
2024-05-09T12:04:59.452Z,7.10
2024-05-09T12:07:47.435Z,6.20
2024-05-09T12:10:41.164Z,6.47
2024-05-09T12:13:29.510Z,5.93
2024-05-09T12:16:20.883Z,5.50
2024-05-09T12:19:09.208Z,5.53
2024-05-09T12:22:00.156Z,6.00
2024-05-09T12:24:48.438Z,4.72
2024-05-09T12:27:41.986Z,5.70
2024-05-09T12:30:36.592Z,5.45
2024-05-09T12:33:30.347Z,6.13
2024-05-09T12:36:18.417Z,5.93
2024-05-09T12:39:09.533Z,5.20
2024-05-09T12:41:57.353Z,5.03
2024-05-09T12:44:51.101Z,5.10
2024-05-09T12:47:41.682Z,5.22
2024-05-09T12:50:34.169Z,4.90
2024-05-09T12:53:25.249Z,5.47
2024-05-09T12:56:16.021Z,5.05
2024-05-09T12:59:04.130Z,4.70
2024-05-09T13:02:00.414Z,5.10
2024-05-09T13:04:49.081Z,5.80
2024-05-09T13:07:39.825Z,7.40
2024-05-09T13:10:35.741Z,6.23
2024-05-09T13:13:23.833Z,5.43
2024-05-09T13:16:15.909Z,5.03
2024-05-09T13:19:09.404Z,5.37
2024-05-09T13:21:57.405Z,5.50
2024-05-09T13:24:48.149Z,5.30
2024-05-09T13:27:36.426Z,5.17
2024-05-09T13:30:35.564Z,4.83
2024-05-09T13:33:28.104Z,4.80
2024-05-09T13:36:21.403Z,5.83
2024-05-09T13:39:09.343Z,5.23
2024-05-09T13:41:59.822Z,4.83
2024-05-09T13:44:47.697Z,4.60
2024-05-09T13:47:38.350Z,4.37
2024-05-09T13:50:34.191Z,4.53
2024-05-09T13:53:26.824Z,4.20
2024-05-09T13:56:17.354Z,4.90
2024-05-09T13:59:05.534Z,4.90
2024-05-09T14:01:56.120Z,4.40
2024-05-09T14:05:10.872Z,4.07
2024-05-09T14:08:02.183Z,4.70
2024-05-09T14:10:56.223Z,4.43
2024-05-09T14:13:44.524Z,4.60
2024-05-09T14:16:35.843Z,4.83
2024-05-09T14:19:23.865Z,5.63
2024-05-09T14:22:14.515Z,5.33
2024-05-09T14:25:02.863Z,4.67
2024-05-09T14:27:56.340Z,5.90
2024-05-09T14:30:44.305Z,4.90
2024-05-09T14:33:34.910Z,4.87
2024-05-09T14:36:22.959Z,6.23
2024-05-09T14:39:13.419Z,4.80
2024-05-09T14:42:01.288Z,4.13
2024-05-09T14:44:54.479Z,5.40
2024-05-09T14:47:42.504Z,5.07
2024-05-09T14:50:37.333Z,4.77
2024-05-09T14:53:28.403Z,4.73
2024-05-09T14:56:18.996Z,5.07
2024-05-09T14:59:07.578Z,5.20
2024-05-09T15:02:00.779Z,4.43
2024-05-09T15:04:48.877Z,4.20
2024-05-09T15:07:39.732Z,4.70
2024-05-09T15:10:34.807Z,4.70
2024-05-09T15:13:25.163Z,4.50
2024-05-09T15:16:15.847Z,4.83
2024-05-09T15:19:06.570Z,3.87
2024-05-09T15:21:57.332Z,4.33
2024-05-09T15:24:46.369Z,3.93
2024-05-09T15:27:36.982Z,3.40
2024-05-09T15:33:19.012Z,4.37
2024-05-09T15:36:12.634Z,3.33
2024-05-09T15:39:00.885Z,4.70
2024-05-09T15:41:52.959Z,3.80
2024-05-09T15:44:40.837Z,3.77
2024-05-09T15:47:31.653Z,3.87
2024-05-09T15:50:28.311Z,4.30
2024-05-09T15:53:29.170Z,4.43
2024-05-09T15:56:17.360Z,3.70
2024-05-09T15:59:08.137Z,3.07
2024-05-09T16:01:56.966Z,3.23
2024-05-09T16:04:47.583Z,3.87
2024-05-09T16:07:35.588Z,3.80
2024-05-09T16:10:32.703Z,3.83
2024-05-09T16:13:22.113Z,3.20
2024-05-09T16:16:12.763Z,3.10
2024-05-09T16:19:00.771Z,3.17
2024-05-09T16:21:51.302Z,2.70
2024-05-09T16:24:39.724Z,2.90
2024-05-09T16:27:32.941Z,3.60
2024-05-09T16:30:27.301Z,3.70
2024-05-09T16:33:23.955Z,3.70
2024-05-09T16:36:12.113Z,2.70
2024-05-09T16:39:02.790Z,2.30
2024-05-09T16:41:50.584Z,3.70
2024-05-09T16:44:43.658Z,3.30
2024-05-09T16:47:34.301Z,3.90
2024-05-09T16:50:28.868Z,3.40
2024-05-09T16:53:23.230Z,3.23
2024-05-09T16:56:12.589Z,3.30
2024-05-09T16:59:03.117Z,3.20
2024-05-09T17:01:53.691Z,3.07
2024-05-09T17:04:44.234Z,2.90
2024-05-09T17:07:32.426Z,3.10
2024-05-09T17:10:29.654Z,3.20
2024-05-09T17:13:23.839Z,2.90
2024-05-09T17:16:15.612Z,2.47
2024-05-09T17:19:09.432Z,3.00
2024-05-09T17:21:57.308Z,2.70
2024-05-09T17:24:47.822Z,3.00
2024-05-09T17:27:35.968Z,3.50
2024-05-09T17:30:32.481Z,3.10
2024-05-09T17:33:24.338Z,3.00
2024-05-09T17:36:17.556Z,3.20
2024-05-09T17:39:05.702Z,3.40
2024-05-09T17:41:56.153Z,3.30
2024-05-09T17:44:43.951Z,3.70
2024-05-09T17:47:34.486Z,2.90
2024-05-09T17:50:28.022Z,3.10
2024-05-09T17:53:27.654Z,3.30
2024-05-09T17:56:18.337Z,2.90
2024-05-09T17:59:09.197Z,2.90
2024-05-09T18:02:01.480Z,3.00
2024-05-09T18:04:49.516Z,2.90
2024-05-09T18:07:40.073Z,3.40
2024-05-09T18:10:37.240Z,3.73
2024-05-09T18:13:30.089Z,3.37
2024-05-09T18:16:18.569Z,3.37
2024-05-09T18:19:09.681Z,3.10
2024-05-09T18:21:57.706Z,3.00
2024-05-09T18:24:48.254Z,3.00
2024-05-09T18:27:42.089Z,3.00
2024-05-09T18:30:34.866Z,3.03
2024-05-09T18:33:27.313Z,2.70
2024-05-09T18:36:15.294Z,3.00
2024-05-09T18:39:06.235Z,2.93
2024-05-09T18:41:56.730Z,3.00
2024-05-09T18:44:47.245Z,2.70
2024-05-09T18:47:37.911Z,2.93
2024-05-09T18:50:33.711Z,5.30
2024-05-09T18:53:27.898Z,3.00
2024-05-09T18:56:18.479Z,2.97
2024-05-09T18:59:06.432Z,3.20
2024-05-09T19:01:59.576Z,3.00
2024-05-09T19:04:48.293Z,3.00
2024-05-09T19:07:39.088Z,2.60
2024-05-09T19:10:33.657Z,2.90
2024-05-09T19:13:25.873Z,4.73
2024-05-09T19:16:13.931Z,4.17
2024-05-09T19:19:07.648Z,2.90
2024-05-09T19:22:00.613Z,4.00
2024-05-09T19:24:51.165Z,3.17
2024-05-09T19:27:39.075Z,3.10
2024-05-09T19:30:37.779Z,4.50
2024-05-09T19:33:29.385Z,5.60
2024-05-09T19:36:22.754Z,7.43
2024-05-09T19:39:11.632Z,5.53
2024-05-09T19:42:02.131Z,4.40
2024-05-09T19:44:50.150Z,4.10
2024-05-09T19:47:40.803Z,3.53
2024-05-09T19:50:37.170Z,4.37
2024-05-09T19:53:35.658Z,4.70
2024-05-09T19:56:23.596Z,4.60
2024-05-09T19:59:14.544Z,4.83
2024-05-09T20:02:02.627Z,4.37
2024-05-09T20:04:53.995Z,4.97
2024-05-09T20:07:42.241Z,5.80
2024-05-09T20:10:36.501Z,4.97
2024-05-09T20:13:25.091Z,7.13
2024-05-09T20:16:15.675Z,7.07
2024-05-09T20:19:06.261Z,6.93
2024-05-09T20:21:54.213Z,5.47
2024-05-09T20:24:44.738Z,4.90
2024-05-09T20:27:35.239Z,4.50
2024-05-09T20:30:31.701Z,5.00
2024-05-09T20:33:24.000Z,4.93
2024-05-09T20:36:11.943Z,4.90
2024-05-09T20:39:02.487Z,5.43
2024-05-09T20:41:50.365Z,5.50
2024-05-09T20:44:43.418Z,5.30
2024-05-09T20:47:31.382Z,5.20
2024-05-09T20:50:29.170Z,4.80
2024-05-09T20:53:24.758Z,5.30
2024-05-09T20:56:15.224Z,4.87
2024-05-09T20:59:05.683Z,6.30
2024-05-09T21:01:56.228Z,5.90
2024-05-09T21:04:46.832Z,5.57
2024-05-09T21:07:34.738Z,5.37
2024-05-09T21:10:27.132Z,4.73
2024-05-09T21:13:20.132Z,4.93
2024-05-09T21:16:08.491Z,5.00
2024-05-09T21:19:01.669Z,4.60
2024-05-09T21:21:53.406Z,4.27
2024-05-09T21:24:41.332Z,4.73
2024-05-09T21:27:33.651Z,5.80
2024-05-09T21:30:31.820Z,5.63
2024-05-09T21:33:30.881Z,10.17
2024-05-09T21:36:21.517Z,9.53
2024-05-09T21:39:13.919Z,8.00
2024-05-09T21:42:02.727Z,8.20
2024-05-09T21:44:53.214Z,7.73
2024-05-09T21:47:41.140Z,7.37
2024-05-09T21:50:38.869Z,7.20
2024-05-09T21:53:32.792Z,7.00
2024-05-09T21:56:24.340Z,7.00
2024-05-09T21:59:12.164Z,7.37
2024-05-09T22:02:03.263Z,7.80
2024-05-09T22:04:51.267Z,7.10
2024-05-09T22:07:42.057Z,7.80
2024-05-09T22:10:35.067Z,7.00
2024-05-09T22:13:28.708Z,6.80
2024-05-09T22:16:16.571Z,6.97
2024-05-09T22:19:07.081Z,7.30
2024-05-09T22:21:55.486Z,6.77
2024-05-09T22:24:45.980Z,6.77
2024-05-09T22:27:36.912Z,6.97
2024-05-09T22:30:34.783Z,6.43
2024-05-09T22:33:26.039Z,7.03
2024-05-09T22:36:16.599Z,7.20
2024-05-09T22:39:06.590Z,6.60
2024-05-09T22:41:57.025Z,7.00
2024-05-09T22:44:47.459Z,8.00
2024-05-09T22:47:37.996Z,7.07
2024-05-09T22:50:27.240Z,7.93
2024-05-09T22:53:24.706Z,7.87
2024-05-09T22:56:15.146Z,9.13
2024-05-09T22:59:06.684Z,7.60
2024-05-09T23:01:57.248Z,8.77
2024-05-09T23:04:48.197Z,8.83
2024-05-09T23:07:36.057Z,9.60
2024-05-09T23:10:32.476Z,10.17
2024-05-09T23:13:26.985Z,9.77
2024-05-09T23:16:17.712Z,10.63
2024-05-09T23:19:09.616Z,9.50
2024-05-09T23:22:00.160Z,10.63
2024-05-09T23:24:48.188Z,9.70
2024-05-09T23:27:39.184Z,9.97
2024-05-09T23:30:34.706Z,10.03
2024-05-09T23:33:29.150Z,10.23
2024-05-09T23:36:19.602Z,9.43
2024-05-09T23:39:10.337Z,10.70
2024-05-09T23:41:58.171Z,10.73
2024-05-09T23:44:48.637Z,11.00
2024-05-09T23:47:36.535Z,10.67
2024-05-09T23:50:34.152Z,10.13
2024-05-09T23:53:27.669Z,10.60
2024-05-09T23:56:18.646Z,10.27
2024-05-09T23:59:06.622Z,10.03
